createdAt,value
2019-04-28T00:00:48.504Z,87.07
2019-04-28T00:01:48.425Z,87.18
2019-04-28T00:02:48.413Z,87.07
2019-04-28T00:03:48.429Z,87.07
2019-04-28T00:04:48.416Z,87.07
2019-04-28T00:05:48.393Z,87.18
2019-04-28T00:06:48.375Z,87.18
2019-04-28T00:07:48.352Z,87.07
2019-04-28T00:08:48.364Z,87.07
2019-04-28T00:09:48.335Z,87.18
2019-04-28T00:10:48.345Z,87.07
2019-04-28T00:11:48.337Z,87.07
2019-04-28T00:12:48.322Z,87.07
2019-04-28T00:13:48.312Z,86.87
2019-04-28T00:14:48.284Z,86.97
2019-04-28T00:15:48.280Z,87.18
2019-04-28T00:16:48.263Z,87.18
2019-04-28T00:17:48.267Z,87.07
2019-04-28T00:18:48.265Z,87.07
2019-04-28T00:19:48.245Z,87.07
2019-04-28T00:20:48.235Z,86.97
2019-04-28T00:21:48.218Z,87.07
2019-04-28T00:22:48.201Z,87.07
2019-04-28T00:23:48.225Z,87.07
2019-04-28T00:24:48.262Z,86.97
2019-04-28T00:25:48.162Z,86.97
2019-04-28T00:26:48.184Z,87.07
2019-04-28T00:27:48.162Z,86.97
2019-04-28T00:28:48.155Z,87.07
2019-04-28T00:29:48.142Z,86.77
2019-04-28T00:30:48.115Z,86.77
2019-04-28T00:31:52.643Z,86.56
2019-04-28T00:32:48.082Z,86.66
2019-04-28T00:33:48.083Z,86.56
2019-04-28T00:34:48.075Z,86.35
2019-04-28T00:35:48.074Z,86.35
2019-04-28T00:36:48.075Z,86.35
2019-04-28T00:37:48.047Z,86.35
2019-04-28T00:38:48.063Z,86.25
2019-04-28T00:39:48.021Z,86.35
2019-04-28T00:40:47.999Z,86.25
2019-04-28T00:41:48.011Z,86.35
2019-04-28T00:42:47.984Z,86.35
2019-04-28T00:43:47.982Z,86.15
2019-04-28T00:44:47.976Z,85.94
2019-04-28T00:45:47.963Z,86.05
2019-04-28T00:46:47.971Z,86.25
2019-04-28T00:47:47.931Z,86.15
2019-04-28T00:48:47.931Z,86.25
2019-04-28T00:49:48.006Z,86.25
2019-04-28T00:50:47.923Z,86.25
2019-04-28T00:51:47.893Z,86.35
2019-04-28T00:52:47.870Z,86.15
2019-04-28T00:53:47.873Z,86.05
2019-04-28T00:54:47.872Z,85.84
2019-04-28T00:55:47.862Z,85.74
2019-04-28T00:56:47.850Z,85.94
2019-04-28T00:57:47.821Z,85.60
2019-04-28T00:58:47.809Z,85.63
2019-04-28T00:59:55.120Z,85.84
2019-04-28T01:00:48.790Z,85.74
2019-04-28T01:01:47.783Z,85.94
2019-04-28T01:02:47.785Z,85.94
2019-04-28T01:03:47.759Z,85.84
2019-04-28T01:04:47.751Z,85.84
2019-04-28T01:05:47.751Z,85.84
2019-04-28T01:06:47.749Z,85.63
2019-04-28T01:07:47.721Z,85.84
2019-04-28T01:08:47.710Z,85.74
2019-04-28T01:09:47.689Z,85.84
2019-04-28T01:10:47.670Z,85.74
2019-04-28T01:11:47.669Z,85.63
2019-04-28T01:12:47.682Z,85.53
2019-04-28T01:13:47.649Z,85.63
2019-04-28T01:14:49.426Z,85.74
2019-04-28T01:15:49.540Z,85.74
2019-04-28T01:16:47.631Z,85.94
2019-04-28T01:17:49.579Z,85.94
2019-04-28T01:18:47.596Z,86.15
2019-04-28T01:19:47.589Z,85.94
2019-04-28T01:20:49.504Z,85.84
2019-04-28T01:21:47.570Z,85.84
2019-04-28T01:22:49.583Z,85.94
2019-04-28T01:23:47.591Z,85.94
2019-04-28T01:24:49.562Z,86.05
2019-04-28T01:25:47.529Z,86.05
2019-04-28T01:26:47.510Z,85.94
2019-04-28T01:27:47.500Z,85.84
2019-04-28T01:28:47.488Z,85.63
2019-04-28T01:29:47.479Z,85.84
2019-04-28T01:30:47.467Z,85.74
2019-04-28T01:31:49.330Z,86.15
2019-04-28T01:32:47.473Z,86.05
2019-04-28T01:33:47.450Z,85.84
2019-04-28T01:34:47.426Z,85.84
2019-04-28T01:35:49.329Z,85.84
2019-04-28T01:36:47.420Z,85.33
2019-04-28T01:37:47.402Z,85.22
2019-04-28T01:38:47.409Z,84.81
2019-04-28T01:39:47.369Z,85.12
2019-04-28T01:40:47.364Z,85.12
2019-04-28T01:41:47.352Z,85.12
2019-04-28T01:42:47.337Z,85.12
2019-04-28T01:43:47.348Z,84.91
2019-04-28T01:44:47.338Z,84.91
2019-04-28T01:45:47.330Z,84.81
2019-04-28T01:46:47.300Z,84.81
2019-04-28T01:47:47.278Z,84.81
2019-04-28T01:48:47.298Z,84.71
2019-04-28T01:49:47.289Z,84.61
2019-04-28T01:50:47.259Z,84.50
2019-04-28T01:51:47.250Z,84.30
2019-04-28T01:52:47.224Z,84.61
2019-04-28T01:53:47.225Z,84.40
2019-04-28T01:54:47.217Z,84.40
2019-04-28T01:55:47.248Z,84.40
2019-04-28T01:56:47.187Z,84.30
2019-04-28T01:57:47.170Z,84.20
2019-04-28T01:58:47.169Z,84.40
2019-04-28T01:59:47.169Z,84.40
2019-04-28T02:00:47.148Z,84.50
2019-04-28T02:01:47.157Z,84.30
2019-04-28T02:02:47.116Z,84.20
2019-04-28T02:03:47.114Z,83.99
2019-04-28T02:04:47.109Z,83.78
2019-04-28T02:05:47.097Z,83.99
2019-04-28T02:06:47.098Z,83.78
2019-04-28T02:07:47.065Z,83.78
2019-04-28T02:08:47.090Z,83.89
2019-04-28T02:09:47.064Z,83.68
2019-04-28T02:10:47.034Z,83.68
2019-04-28T02:11:47.042Z,83.68
2019-04-28T02:12:47.028Z,83.78
2019-04-28T02:13:47.007Z,83.78
2019-04-28T02:14:47.027Z,83.89
2019-04-28T02:15:46.987Z,83.78
2019-04-28T02:16:46.989Z,83.78
2019-04-28T02:17:46.965Z,83.68
2019-04-28T02:18:46.975Z,83.58
2019-04-28T02:19:46.955Z,83.68
2019-04-28T02:20:46.943Z,83.68
2019-04-28T02:21:46.919Z,83.27
2019-04-28T02:22:46.928Z,83.48
2019-04-28T02:23:46.887Z,83.48
2019-04-28T02:24:46.894Z,83.17
2019-04-28T02:25:46.887Z,82.86
2019-04-28T02:26:46.855Z,83.17
2019-04-28T02:27:46.867Z,83.06
2019-04-28T02:28:46.844Z,82.96
2019-04-28T02:29:46.833Z,82.76
2019-04-28T02:30:50.320Z,82.76
2019-04-28T02:31:47.817Z,82.76
2019-04-28T02:32:46.827Z,82.86
2019-04-28T02:33:46.796Z,82.65
2019-04-28T02:34:46.785Z,82.65
2019-04-28T02:35:46.775Z,82.65
2019-04-28T02:36:46.763Z,82.76
2019-04-28T02:37:46.749Z,82.45
2019-04-28T02:38:46.749Z,82.34
2019-04-28T02:39:46.719Z,82.65
2019-04-28T02:40:46.723Z,82.65
2019-04-28T02:41:46.729Z,82.65
2019-04-28T02:42:46.712Z,82.45
2019-04-28T02:43:46.687Z,82.45
2019-04-28T02:44:46.716Z,82.55
2019-04-28T02:45:46.681Z,82.55
2019-04-28T02:46:46.676Z,82.55
2019-04-28T02:47:46.654Z,82.55
2019-04-28T02:48:46.663Z,82.24
2019-04-28T02:49:46.612Z,82.45
2019-04-28T02:50:46.608Z,82.24
2019-04-28T02:51:46.603Z,82.34
2019-04-28T02:52:46.582Z,82.34
2019-04-28T02:53:46.568Z,82.45
2019-04-28T02:54:46.582Z,82.04
2019-04-28T02:55:46.553Z,82.04
2019-04-28T02:56:46.551Z,82.14
2019-04-28T02:57:46.545Z,82.34
2019-04-28T02:58:46.535Z,82.55
2019-04-28T02:59:46.513Z,82.14
2019-04-28T03:01:00.819Z,82.24
2019-04-28T03:01:47.481Z,82.24
2019-04-28T03:02:46.493Z,82.24
2019-04-28T03:03:46.484Z,82.34
2019-04-28T03:04:46.485Z,82.45
2019-04-28T03:05:46.450Z,82.24
2019-04-28T03:06:46.431Z,82.24
2019-04-28T03:07:46.425Z,82.34
2019-04-28T03:08:46.432Z,82.55
2019-04-28T03:09:46.408Z,82.34
2019-04-28T03:10:46.395Z,82.45
2019-04-28T03:11:46.401Z,82.34
2019-04-28T03:12:46.372Z,82.34
2019-04-28T03:13:46.396Z,82.45
2019-04-28T03:14:46.354Z,82.55
2019-04-28T03:15:46.332Z,82.45
2019-04-28T03:16:46.334Z,82.76
2019-04-28T03:17:46.353Z,82.45
2019-04-28T03:18:46.321Z,82.34
2019-04-28T03:19:46.290Z,82.55
2019-04-28T03:20:46.293Z,82.55
2019-04-28T03:21:46.270Z,82.65
2019-04-28T03:22:46.272Z,82.76
2019-04-28T03:23:46.259Z,82.55
2019-04-28T03:24:46.264Z,82.65
2019-04-28T03:25:46.243Z,82.76
2019-04-28T03:26:46.233Z,82.55
2019-04-28T03:27:46.256Z,82.76
2019-04-28T03:28:46.201Z,82.55
2019-04-28T03:29:46.203Z,82.45
2019-04-28T03:30:46.205Z,82.65
2019-04-28T03:32:14.036Z,82.55
2019-04-28T03:32:53.609Z,82.45
2019-04-28T03:33:48.962Z,82.45
2019-04-28T03:34:47.123Z,82.34
2019-04-28T03:35:46.129Z,82.34
2019-04-28T03:36:46.118Z,82.34
2019-04-28T03:37:46.103Z,82.24
2019-04-28T03:38:46.089Z,82.24
2019-04-28T03:39:46.079Z,82.24
2019-04-28T03:40:46.060Z,82.55
2019-04-28T03:41:46.086Z,82.65
2019-04-28T03:42:46.051Z,82.55
2019-04-28T03:43:46.052Z,82.34
2019-04-28T03:44:46.041Z,82.45
2019-04-28T03:45:46.020Z,82.55
2019-04-28T03:46:46.051Z,82.45
2019-04-28T03:47:45.990Z,82.45
2019-04-28T03:48:45.977Z,82.45
2019-04-28T03:49:45.971Z,82.45
2019-04-28T03:50:46.000Z,82.24
2019-04-28T03:51:45.948Z,82.34
2019-04-28T03:52:45.962Z,82.24
2019-04-28T03:53:45.935Z,82.34
2019-04-28T03:54:45.941Z,82.14
2019-04-28T03:55:45.946Z,82.24
2019-04-28T03:56:45.889Z,82.34
2019-04-28T03:57:45.893Z,82.14
2019-04-28T03:58:45.904Z,82.14
2019-04-28T03:59:45.901Z,82.04
2019-04-28T04:00:45.870Z,82.24
2019-04-28T04:01:56.681Z,82.34
2019-04-28T04:02:46.851Z,82.45
2019-04-28T04:03:45.858Z,82.55
2019-04-28T04:04:45.824Z,82.45
2019-04-28T04:05:45.798Z,82.34
2019-04-28T04:06:45.806Z,82.45
2019-04-28T04:07:45.810Z,82.55
2019-04-28T04:08:45.778Z,82.45
2019-04-28T04:09:45.769Z,82.45
2019-04-28T04:10:45.739Z,82.45
2019-04-28T04:11:45.742Z,82.45
2019-04-28T04:12:45.728Z,82.55
2019-04-28T04:13:45.738Z,82.45
2019-04-28T04:14:45.700Z,82.55
2019-04-28T04:15:49.560Z,82.45
2019-04-28T04:16:46.679Z,82.34
2019-04-28T04:17:45.656Z,82.34
2019-04-28T04:18:45.678Z,82.45
2019-04-28T04:19:45.660Z,82.34
2019-04-28T04:20:45.650Z,82.55
2019-04-28T04:21:45.650Z,82.65
2019-04-28T04:22:45.621Z,82.55
2019-04-28T04:23:45.611Z,82.45
2019-04-28T04:24:45.597Z,82.34
2019-04-28T04:25:45.590Z,82.45
2019-04-28T04:26:45.568Z,82.65
2019-04-28T04:27:45.568Z,82.55
2019-04-28T04:28:45.559Z,82.55
2019-04-28T04:29:45.530Z,82.45
2019-04-28T04:30:45.545Z,82.34
2019-04-28T04:31:45.529Z,82.24
2019-04-28T04:32:45.519Z,82.45
2019-04-28T04:33:45.520Z,82.34
2019-04-28T04:34:45.493Z,82.45
2019-04-28T04:35:45.479Z,82.45
2019-04-28T04:36:45.457Z,82.55
2019-04-28T04:37:45.446Z,82.45
2019-04-28T04:38:46.404Z,82.65
2019-04-28T04:39:45.438Z,82.55
2019-04-28T04:40:45.439Z,82.65
2019-04-28T04:41:45.418Z,82.55
2019-04-28T04:42:45.408Z,82.65
2019-04-28T04:43:45.396Z,82.34
2019-04-28T04:44:45.385Z,82.45
2019-04-28T04:45:45.377Z,82.65
2019-04-28T04:46:45.362Z,82.65
2019-04-28T04:47:45.345Z,82.65
2019-04-28T04:48:45.346Z,82.45
2019-04-28T04:49:45.326Z,82.45
2019-04-28T04:50:45.312Z,82.65
2019-04-28T04:51:45.295Z,82.65
2019-04-28T04:52:45.284Z,82.55
2019-04-28T04:53:45.299Z,82.76
2019-04-28T04:54:45.268Z,82.65
2019-04-28T04:55:45.267Z,82.65
2019-04-28T04:56:45.247Z,82.45
2019-04-28T04:57:45.238Z,82.24
2019-04-28T04:58:45.227Z,82.45
2019-04-28T04:59:45.246Z,82.24
2019-04-28T05:00:45.204Z,82.04
2019-04-28T05:01:45.193Z,82.14
2019-04-28T05:02:51.578Z,82.31
2019-04-28T05:03:46.164Z,82.24
2019-04-28T05:04:45.164Z,82.20
2019-04-28T05:05:45.155Z,82.20
2019-04-28T05:06:45.138Z,81.90
2019-04-28T05:07:45.123Z,82.10
2019-04-28T05:08:45.116Z,82.10
2019-04-28T05:09:45.126Z,81.79
2019-04-28T05:10:45.106Z,81.90
2019-04-28T05:11:45.084Z,81.90
2019-04-28T05:12:45.077Z,82.10
2019-04-28T05:13:45.066Z,82.20
2019-04-28T05:14:45.056Z,82.00
2019-04-28T05:15:45.054Z,82.00
2019-04-28T05:16:45.036Z,81.90
2019-04-28T05:17:45.014Z,82.00
2019-04-28T05:18:45.015Z,81.69
2019-04-28T05:19:45.003Z,81.28
2019-04-28T05:20:45.010Z,81.38
2019-04-28T05:21:44.962Z,81.24
2019-04-28T05:22:44.956Z,81.65
2019-04-28T05:23:44.952Z,81.45
2019-04-28T05:24:46.143Z,81.34
2019-04-28T05:25:45.952Z,81.24
2019-04-28T05:26:47.685Z,80.93
2019-04-28T05:27:44.914Z,80.73
2019-04-28T05:28:51.420Z,80.93
2019-04-28T05:29:45.904Z,80.83
2019-04-28T05:30:44.895Z,80.83
2019-04-28T05:31:44.883Z,80.63
2019-04-28T05:32:49.603Z,80.63
2019-04-28T05:33:45.854Z,80.38
2019-04-28T05:34:46.450Z,80.38
2019-04-28T05:35:44.846Z,79.97
2019-04-28T05:36:44.923Z,80.07
2019-04-28T05:37:45.062Z,79.97
2019-04-28T05:38:44.791Z,79.77
2019-04-28T05:39:44.782Z,79.66
2019-04-28T05:40:44.811Z,79.56
2019-04-28T05:41:44.774Z,79.46
2019-04-28T05:42:44.756Z,79.36
2019-04-28T05:43:44.739Z,79.66
2019-04-28T05:44:44.724Z,79.93
2019-04-28T05:45:44.734Z,79.52
2019-04-28T05:46:44.723Z,79.22
2019-04-28T05:47:44.712Z,78.91
2019-04-28T05:48:44.694Z,78.81
2019-04-28T05:49:44.700Z,78.87
2019-04-28T05:50:44.676Z,78.56
2019-04-28T05:51:44.661Z,78.46
2019-04-28T05:52:44.642Z,78.36
2019-04-28T05:53:44.667Z,78.05
2019-04-28T05:54:44.653Z,78.25
2019-04-28T05:55:44.623Z,78.46
2019-04-28T05:56:44.612Z,78.25
2019-04-28T05:57:44.609Z,78.36
2019-04-28T05:58:44.583Z,78.32
2019-04-28T05:59:44.574Z,78.22
2019-04-28T06:00:44.570Z,78.02
2019-04-28T06:01:44.554Z,77.91
2019-04-28T06:02:55.587Z,77.81
2019-04-28T06:03:45.512Z,77.77
2019-04-28T06:04:44.524Z,77.06
2019-04-28T06:05:44.519Z,76.85
2019-04-28T06:06:44.489Z,77.06
2019-04-28T06:07:44.481Z,77.26
2019-04-28T06:08:44.480Z,76.75
2019-04-28T06:09:44.462Z,76.54
2019-04-28T06:10:44.452Z,76.34
2019-04-28T06:11:44.471Z,76.14
2019-04-28T06:12:44.429Z,76.20
2019-04-28T06:13:44.422Z,76.20
2019-04-28T06:14:44.441Z,76.31
2019-04-28T06:15:44.387Z,76.31
2019-04-28T06:16:44.380Z,75.99
2019-04-28T06:17:44.396Z,76.10
2019-04-28T06:18:44.348Z,75.28
2019-04-28T06:19:44.369Z,75.18
2019-04-28T06:20:44.359Z,75.28
2019-04-28T06:21:44.338Z,75.14
2019-04-28T06:22:44.318Z,74.73
2019-04-28T06:23:44.332Z,74.32
2019-04-28T06:24:44.391Z,74.43
2019-04-28T06:25:44.370Z,74.08
2019-04-28T06:26:44.280Z,73.68
2019-04-28T06:27:44.280Z,74.08
2019-04-28T06:28:44.289Z,73.98
2019-04-28T06:29:44.240Z,73.23
2019-04-28T06:30:44.224Z,73.13
2019-04-28T06:31:44.235Z,72.65
2019-04-28T06:32:44.221Z,73.47
2019-04-28T06:33:44.540Z,73.44
2019-04-28T06:34:44.211Z,73.33
2019-04-28T06:35:44.270Z,72.82
2019-04-28T06:36:44.157Z,72.52
2019-04-28T06:37:44.169Z,72.52
2019-04-28T06:38:44.235Z,72.41
2019-04-28T06:39:47.109Z,72.41
2019-04-28T06:40:44.120Z,72.31
2019-04-28T06:41:44.127Z,72.31
2019-04-28T06:42:44.097Z,72.52
2019-04-28T06:43:44.093Z,72.31
2019-04-28T06:44:44.167Z,71.80
2019-04-28T06:45:44.109Z,71.80
2019-04-28T06:46:44.067Z,71.77
2019-04-28T06:47:44.128Z,71.36
2019-04-28T06:48:44.079Z,70.95
2019-04-28T06:49:44.042Z,70.75
2019-04-28T06:50:44.252Z,70.43
2019-04-28T06:51:44.052Z,70.81
2019-04-28T06:52:44.010Z,70.30
2019-04-28T06:53:44.035Z,70.40
2019-04-28T06:54:44.074Z,70.51
2019-04-28T06:55:44.016Z,69.76
2019-04-28T06:56:43.958Z,69.96
2019-04-28T06:57:44.198Z,69.86
2019-04-28T06:58:43.936Z,70.17
2019-04-28T06:59:44.035Z,69.24
2019-04-28T07:00:43.998Z,69.45
2019-04-28T07:01:43.920Z,69.32
2019-04-28T07:02:44.011Z,69.24
2019-04-28T07:03:43.879Z,69.24
2019-04-28T07:04:43.966Z,69.35
2019-04-28T07:05:43.884Z,70.17
2019-04-28T07:06:44.235Z,69.65
2019-04-28T07:07:43.858Z,69.15
2019-04-28T07:08:43.847Z,69.35
2019-04-28T07:09:43.810Z,69.15
2019-04-28T07:10:43.913Z,69.15
2019-04-28T07:11:43.898Z,68.19
2019-04-28T07:12:43.875Z,68.09
2019-04-28T07:13:43.865Z,68.70
2019-04-28T07:14:43.825Z,68.16
2019-04-28T07:15:43.758Z,68.26
2019-04-28T07:16:43.759Z,68.77
2019-04-28T07:17:43.717Z,68.88
2019-04-28T07:18:43.707Z,68.06
2019-04-28T07:19:43.707Z,67.96
2019-04-28T07:20:43.706Z,67.82
2019-04-28T07:21:43.679Z,67.62
2019-04-28T07:22:43.675Z,67.41
2019-04-28T07:23:43.657Z,67.11
2019-04-28T07:24:44.974Z,66.70
2019-04-28T07:25:43.646Z,66.91
2019-04-28T07:26:43.631Z,67.11
2019-04-28T07:27:43.627Z,67.21
2019-04-28T07:28:43.603Z,67.32
2019-04-28T07:29:43.582Z,67.21
2019-04-28T07:30:43.616Z,67.21
2019-04-28T07:31:43.694Z,67.32
2019-04-28T07:32:43.577Z,66.91
2019-04-28T07:33:43.558Z,66.80
2019-04-28T07:34:43.567Z,66.57
2019-04-28T07:35:43.542Z,66.77
2019-04-28T07:36:43.513Z,66.27
2019-04-28T07:37:43.528Z,65.78
2019-04-28T07:38:43.517Z,65.89
2019-04-28T07:39:43.487Z,66.09
2019-04-28T07:40:43.498Z,65.78
2019-04-28T07:41:43.465Z,65.99
2019-04-28T07:42:43.497Z,65.89
2019-04-28T07:43:43.445Z,65.25
2019-04-28T07:44:43.448Z,64.73
2019-04-28T07:45:43.429Z,65.55
2019-04-28T07:46:43.405Z,64.94
2019-04-28T07:47:43.394Z,65.01
2019-04-28T07:48:43.386Z,64.90
2019-04-28T07:49:43.385Z,64.20
2019-04-28T07:50:43.364Z,64.09
2019-04-28T07:51:43.358Z,64.40
2019-04-28T07:52:43.356Z,64.17
2019-04-28T07:53:43.331Z,64.14
2019-04-28T07:54:43.333Z,62.71
2019-04-28T07:55:43.312Z,61.79
2019-04-28T07:56:43.292Z,61.59
2019-04-28T07:57:43.315Z,61.97
2019-04-28T07:58:43.285Z,61.87
2019-04-28T07:59:43.262Z,61.15
2019-04-28T08:00:43.276Z,62.17
2019-04-28T08:01:43.243Z,61.59
2019-04-28T08:02:43.236Z,61.08
2019-04-28T08:03:49.812Z,60.16
2019-04-28T08:04:44.212Z,60.54
2019-04-28T08:05:43.214Z,60.47
2019-04-28T08:06:43.205Z,60.27
2019-04-28T08:07:43.178Z,60.47
2019-04-28T08:08:43.178Z,61.46
2019-04-28T08:09:43.299Z,60.64
2019-04-28T08:10:43.163Z,60.75
2019-04-28T08:11:43.131Z,60.54
2019-04-28T08:12:43.146Z,60.98
2019-04-28T08:13:43.102Z,60.68
2019-04-28T08:14:43.326Z,60.98
2019-04-28T08:15:43.084Z,59.96
2019-04-28T08:16:43.113Z,59.66
2019-04-28T08:17:43.083Z,59.12
2019-04-28T08:18:43.065Z,58.48
2019-04-28T08:19:43.054Z,58.58
2019-04-28T08:20:43.044Z,57.67
2019-04-28T08:21:43.044Z,57.95
2019-04-28T08:22:43.038Z,57.64
2019-04-28T08:23:47.227Z,57.87
2019-04-28T08:24:42.990Z,57.77
2019-04-28T08:25:42.985Z,57.46
2019-04-28T08:26:42.973Z,57.67
2019-04-28T08:27:42.974Z,58.07
2019-04-28T08:28:42.959Z,58.28
2019-04-28T08:29:42.980Z,58.28
2019-04-28T08:30:42.948Z,58.15
2019-04-28T08:31:43.113Z,57.34
2019-04-28T08:32:42.903Z,56.73
2019-04-28T08:33:42.910Z,56.42
2019-04-28T08:34:42.885Z,56.73
2019-04-28T08:35:42.894Z,56.39
2019-04-28T08:36:42.872Z,56.49
2019-04-28T08:37:42.857Z,56.09
2019-04-28T08:38:42.846Z,55.99
2019-04-28T08:39:42.858Z,55.27
2019-04-28T08:40:42.863Z,55.18
2019-04-28T08:41:42.814Z,55.27
2019-04-28T08:42:42.813Z,55.07
2019-04-28T08:43:42.782Z,55.07
2019-04-28T08:44:42.786Z,55.18
2019-04-28T08:45:42.806Z,54.46
2019-04-28T08:46:42.789Z,53.75
2019-04-28T08:47:42.761Z,54.05
2019-04-28T08:48:42.743Z,54.36
2019-04-28T08:49:42.734Z,54.05
2019-04-28T08:50:42.765Z,53.88
2019-04-28T08:51:42.725Z,55.10
2019-04-28T08:52:42.713Z,55.02
2019-04-28T08:53:42.683Z,54.51
2019-04-28T08:54:42.674Z,55.73
2019-04-28T08:55:42.663Z,55.73
2019-04-28T08:56:42.651Z,55.22
2019-04-28T08:57:42.650Z,54.79
2019-04-28T08:58:42.645Z,54.08
2019-04-28T08:59:42.620Z,54.69
2019-04-28T09:00:42.612Z,55.40
2019-04-28T09:01:42.600Z,54.69
2019-04-28T09:02:42.591Z,54.87
2019-04-28T09:03:42.598Z,54.97
2019-04-28T09:04:42.564Z,54.16
2019-04-28T09:05:42.573Z,54.13
2019-04-28T09:06:42.531Z,54.13
2019-04-28T09:07:42.560Z,54.33
2019-04-28T09:08:42.560Z,54.33
2019-04-28T09:09:42.511Z,54.13
2019-04-28T09:10:42.503Z,53.55
2019-04-28T09:11:42.615Z,53.65
2019-04-28T09:12:42.512Z,53.75
2019-04-28T09:13:43.981Z,52.86
2019-04-28T09:14:42.678Z,53.67
2019-04-28T09:15:42.480Z,54.18
2019-04-28T09:16:42.475Z,54.08
2019-04-28T09:17:42.433Z,54.59
2019-04-28T09:18:42.413Z,54.18
2019-04-28T09:19:42.606Z,54.08
2019-04-28T09:20:42.402Z,54.79
2019-04-28T09:21:42.389Z,54.49
2019-04-28T09:22:42.370Z,54.41
2019-04-28T09:23:42.389Z,54.31
2019-04-28T09:24:42.354Z,54.82
2019-04-28T09:25:42.339Z,54.92
2019-04-28T09:26:42.319Z,55.22
2019-04-28T09:27:42.320Z,54.74
2019-04-28T09:28:42.332Z,55.05
2019-04-28T09:29:42.332Z,55.15
2019-04-28T09:30:42.280Z,55.96
2019-04-28T09:31:42.271Z,56.07
2019-04-28T09:32:42.273Z,56.34
2019-04-28T09:33:42.241Z,57.26
2019-04-28T09:34:42.331Z,57.97
2019-04-28T09:35:43.152Z,58.89
2019-04-28T09:36:42.222Z,59.42
2019-04-28T09:37:42.254Z,60.95
2019-04-28T09:38:42.789Z,61.76
2019-04-28T09:39:42.189Z,63.12
2019-04-28T09:40:42.181Z,63.09
2019-04-28T09:41:43.251Z,64.51
2019-04-28T09:42:42.165Z,62.68
2019-04-28T09:43:42.214Z,62.68
2019-04-28T09:44:42.371Z,62.45
2019-04-28T09:45:42.129Z,62.65
2019-04-28T09:46:42.110Z,62.32
2019-04-28T09:47:42.101Z,62.11
2019-04-28T09:48:42.091Z,61.81
2019-04-28T09:49:42.081Z,62.08
2019-04-28T09:50:42.112Z,60.69
2019-04-28T09:51:42.071Z,58.94
2019-04-28T09:52:42.058Z,58.83
2019-04-28T09:53:42.042Z,59.95
2019-04-28T09:54:42.020Z,59.84
2019-04-28T09:55:42.012Z,59.34
2019-04-28T09:56:42.010Z,59.31
2019-04-28T09:57:42.309Z,59.11
2019-04-28T09:58:41.981Z,59.89
2019-04-28T09:59:41.981Z,59.59
2019-04-28T10:00:41.969Z,58.58
2019-04-28T10:01:41.971Z,59.18
2019-04-28T10:02:41.950Z,58.98
2019-04-28T10:03:41.939Z,58.34
2019-04-28T10:04:42.417Z,58.24
2019-04-28T10:05:41.911Z,57.33
2019-04-28T10:06:41.926Z,57.60
2019-04-28T10:07:41.919Z,56.59
2019-04-28T10:08:42.760Z,56.70
2019-04-28T10:09:41.924Z,53.93
2019-04-28T10:10:41.861Z,53.83
2019-04-28T10:11:41.851Z,54.11
2019-04-28T10:12:41.845Z,54.82
2019-04-28T10:13:41.827Z,53.80
2019-04-28T10:14:41.819Z,53.50
2019-04-28T10:15:41.800Z,54.21
2019-04-28T10:16:41.791Z,52.15
2019-04-28T10:17:41.780Z,52.06
2019-04-28T10:18:42.093Z,52.03
2019-04-28T10:21:09.850Z,50.82
2019-04-28T10:22:06.992Z,51.73
2019-04-28T10:23:06.760Z,51.86
2019-04-28T10:24:06.720Z,52.06
2019-04-28T10:25:06.772Z,51.86
2019-04-28T10:26:06.692Z,52.03
2019-04-28T10:27:10.172Z,51.93
2019-04-28T10:28:07.068Z,50.79
2019-04-28T10:29:06.811Z,51.20
2019-04-28T10:30:07.665Z,51.53
2019-04-28T10:31:06.914Z,51.32
2019-04-28T10:32:06.669Z,52.03
2019-04-28T10:33:06.718Z,52.23
2019-04-28T10:34:06.720Z,51.42
2019-04-28T10:35:06.733Z,51.30
2019-04-28T10:36:06.556Z,51.50
2019-04-28T10:37:06.991Z,50.59
2019-04-28T10:38:06.699Z,50.82
2019-04-28T10:39:07.095Z,51.12
2019-04-28T10:40:06.918Z,50.51
2019-04-28T10:41:06.641Z,51.02
2019-04-28T10:42:07.202Z,51.22
2019-04-28T10:43:06.470Z,52.03
2019-04-28T10:44:08.600Z,52.76
2019-04-28T10:45:06.943Z,54.31
2019-04-28T10:46:06.909Z,54.82
2019-04-28T10:47:12.002Z,53.02
2019-04-28T10:49:38.304Z,54.24
2019-04-28T10:51:18.542Z,55.15
2019-04-28T10:51:39.187Z,55.04
2019-04-28T10:52:37.913Z,52.81
2019-04-28T10:53:37.671Z,53.12
2019-04-28T10:54:37.671Z,53.55
2019-04-28T10:55:37.782Z,54.08
2019-04-28T10:56:37.511Z,57.03
2019-04-28T10:57:37.694Z,57.23
2019-04-28T10:58:38.573Z,58.88
2019-04-28T10:59:37.684Z,56.65
2019-04-28T11:00:38.542Z,61.14
2019-04-28T11:01:38.013Z,62.29
2019-04-28T11:02:37.749Z,62.82
2019-04-28T11:03:37.774Z,64.41
2019-04-28T11:04:37.711Z,68.10
2019-04-28T11:05:37.722Z,68.10
2019-04-28T11:06:37.611Z,70.00
2019-04-28T11:07:38.975Z,71.26
2019-04-28T11:08:38.159Z,72.11
2019-04-28T11:09:37.410Z,72.34
2019-04-28T11:10:37.383Z,69.42
2019-04-28T11:11:37.361Z,69.45
2019-04-28T11:12:37.358Z,72.82
2019-04-28T11:13:37.349Z,71.42
2019-04-28T11:14:37.336Z,73.27
2019-04-28T11:15:37.345Z,72.24
2019-04-28T11:16:37.314Z,72.75
2019-04-28T11:17:37.535Z,75.21
2019-04-28T11:18:37.284Z,73.78
2019-04-28T11:19:37.294Z,74.80
2019-04-28T11:20:37.266Z,77.05
2019-04-28T11:21:37.284Z,75.79
2019-04-28T11:22:37.245Z,77.49
2019-04-28T11:23:37.239Z,75.45
2019-04-28T11:24:37.226Z,73.06
2019-04-28T11:25:37.205Z,71.83
2019-04-28T11:26:37.888Z,72.34
2019-04-28T11:27:37.182Z,71.70
2019-04-28T11:28:37.917Z,71.80
2019-04-28T11:29:37.152Z,72.28
2019-04-28T11:30:37.143Z,71.43
2019-04-28T11:31:37.145Z,71.70
2019-04-28T11:32:37.122Z,68.84
2019-04-28T11:33:37.125Z,70.37
2019-04-28T11:34:37.118Z,69.46
2019-04-28T11:35:37.105Z,69.63
2019-04-28T11:36:37.123Z,69.70
2019-04-28T11:37:37.072Z,71.50
2019-04-28T11:38:37.063Z,68.18
2019-04-28T11:39:37.122Z,65.70
2019-04-28T11:40:37.032Z,65.70
2019-04-28T11:41:37.035Z,63.13
2019-04-28T11:42:37.032Z,66.05
2019-04-28T11:43:37.146Z,62.66
2019-04-28T11:44:37.004Z,65.20
2019-04-28T11:45:36.994Z,59.62
2019-04-28T11:46:36.972Z,61.75
2019-04-28T11:47:36.987Z,66.26
2019-04-28T11:48:36.955Z,64.73
2019-04-28T11:49:36.943Z,57.71
2019-04-28T11:50:36.922Z,58.01
2019-04-28T11:51:36.964Z,59.63
2019-04-28T11:52:37.087Z,59.91
2019-04-28T11:53:36.890Z,56.67
2019-04-28T11:54:36.882Z,60.52
2019-04-28T11:55:36.884Z,65.25
2019-04-28T11:56:41.616Z,61.51
2019-04-28T11:57:37.864Z,61.27
2019-04-28T11:58:36.843Z,55.02
2019-04-28T11:59:37.333Z,56.26
2019-04-28T12:00:36.951Z,55.04
2019-04-28T12:01:36.853Z,57.48
2019-04-28T12:02:36.806Z,56.54
2019-04-28T12:03:36.829Z,56.34
2019-04-28T12:04:36.773Z,58.87
2019-04-28T12:05:38.402Z,59.99
2019-04-28T12:06:36.765Z,60.59
2019-04-28T12:07:36.742Z,54.84
2019-04-28T12:08:36.911Z,56.46
2019-04-28T12:09:36.892Z,58.59
2019-04-28T12:10:36.712Z,59.20
2019-04-28T12:11:36.787Z,55.73
2019-04-28T12:12:36.705Z,56.64
2019-04-28T12:13:36.693Z,56.64
2019-04-28T12:14:36.703Z,57.24
2019-04-28T12:15:36.663Z,56.54
2019-04-28T12:16:36.644Z,55.35
2019-04-28T12:17:36.661Z,57.40
2019-04-28T12:18:36.624Z,56.59
2019-04-28T12:19:36.643Z,59.63
2019-04-28T12:20:36.613Z,59.05
2019-04-28T12:21:36.791Z,59.16
2019-04-28T12:22:36.631Z,59.74
2019-04-28T12:23:36.583Z,59.23
2019-04-28T12:24:36.552Z,55.55
2019-04-28T12:25:36.561Z,55.52
2019-04-28T12:26:36.531Z,55.32
2019-04-28T12:27:36.572Z,53.98
2019-04-28T12:28:36.524Z,56.92
2019-04-28T12:29:36.607Z,57.93
2019-04-28T12:30:36.495Z,55.80
2019-04-28T12:31:36.555Z,54.28
2019-04-28T12:32:36.461Z,53.88
2019-04-28T12:33:36.466Z,53.50
2019-04-28T12:34:36.472Z,56.03
2019-04-28T12:35:47.279Z,51.17
2019-04-28T12:36:37.423Z,53.02
2019-04-28T12:37:36.410Z,54.33
2019-04-28T12:38:36.466Z,55.63
2019-04-28T12:39:36.412Z,53.60
2019-04-28T12:40:36.384Z,54.03
2019-04-28T12:41:36.374Z,57.28
2019-04-28T12:42:36.351Z,57.04
2019-04-28T12:43:36.347Z,53.19
2019-04-28T12:44:36.340Z,52.89
2019-04-28T12:45:36.412Z,50.05
2019-04-28T12:46:36.314Z,50.86
2019-04-28T12:47:36.321Z,51.98
2019-04-28T12:48:36.307Z,53.47
2019-04-28T12:49:36.282Z,51.07
2019-04-28T12:50:36.261Z,51.78
2019-04-28T12:51:36.385Z,53.60
2019-04-28T12:52:36.273Z,52.00
2019-04-28T12:53:36.254Z,53.55
2019-04-28T12:54:36.238Z,52.94
2019-04-28T12:55:36.236Z,51.42